createdAt,value
2023-05-21T00:01:16.339Z,6.18
2023-05-21T00:06:21.015Z,6.55
2023-05-21T00:11:24.422Z,8.32
2023-05-21T00:16:29.028Z,8.77
2023-05-21T00:21:32.236Z,7.78
2023-05-21T00:26:35.405Z,6.88
2023-05-21T00:31:40.302Z,5.57
2023-05-21T00:36:45.524Z,7.95
2023-05-21T00:41:49.647Z,9.30
2023-05-21T00:46:54.683Z,6.68
2023-05-21T00:52:01.478Z,7.22
2023-05-21T00:57:05.170Z,7.38
2023-05-21T01:02:09.747Z,6.53
2023-05-21T01:07:13.372Z,7.75
2023-05-21T01:12:16.719Z,8.10
2023-05-21T01:17:24.404Z,10.55
2023-05-21T01:22:29.721Z,8.27
2023-05-21T01:27:34.309Z,8.80
2023-05-21T01:32:41.885Z,9.73
2023-05-21T01:37:47.256Z,8.40
2023-05-21T01:42:52.593Z,8.80
2023-05-21T01:47:56.657Z,8.27
2023-05-21T01:53:01.225Z,9.73
2023-05-21T01:58:06.325Z,6.15
2023-05-21T02:03:09.826Z,7.50
2023-05-21T02:08:15.325Z,8.27
2023-05-21T02:13:22.333Z,11.68
2023-05-21T02:18:29.295Z,7.85
2023-05-21T02:23:33.026Z,7.70
2023-05-21T02:28:37.533Z,9.35
2023-05-21T02:33:41.223Z,7.82
2023-05-21T02:38:44.451Z,7.18
2023-05-21T02:43:48.975Z,10.23
2023-05-21T02:48:53.936Z,9.70
2023-05-21T02:53:57.156Z,9.23
2023-05-21T02:59:01.674Z,7.13
2023-05-21T03:04:05.165Z,7.68
2023-05-21T03:09:08.377Z,8.75
2023-05-21T03:14:13.479Z,8.43
2023-05-21T03:19:16.675Z,8.20
2023-05-21T03:24:20.784Z,7.75
2023-05-21T03:29:25.397Z,9.38
2023-05-21T03:34:28.597Z,8.20
2023-05-21T03:39:32.598Z,8.20
2023-05-21T03:44:37.817Z,8.38
2023-05-21T03:50:09.273Z,10.98
2023-05-21T03:55:12.791Z,8.27
2023-05-21T04:00:17.918Z,9.00
2023-05-21T04:05:22.940Z,9.07
2023-05-21T04:10:27.037Z,8.48
2023-05-21T04:15:32.534Z,9.00
2023-05-21T04:20:35.906Z,9.95
2023-05-21T04:25:39.722Z,8.52
2023-05-21T04:30:45.993Z,9.02
2023-05-21T04:35:51.424Z,11.40
2023-05-21T04:40:55.769Z,8.73
2023-05-21T04:46:01.459Z,10.75
2023-05-21T04:51:05.781Z,9.35
2023-05-21T04:56:09.806Z,11.40
2023-05-21T05:01:14.601Z,12.05
2023-05-21T05:06:18.048Z,10.65
2023-05-21T05:11:22.470Z,8.57
2023-05-21T05:16:29.739Z,9.73
2023-05-21T05:21:33.706Z,9.52
2023-05-21T05:26:37.338Z,9.25
2023-05-21T05:31:42.020Z,12.82
2023-05-21T05:36:45.431Z,9.88
2023-05-21T05:41:48.764Z,9.77
2023-05-21T05:46:53.445Z,13.32
2023-05-21T05:51:56.734Z,10.82
2023-05-21T05:57:00.127Z,10.30
2023-05-21T06:02:05.894Z,19.73
2023-05-21T06:07:09.102Z,13.95
2023-05-21T06:12:15.920Z,12.07
2023-05-21T06:17:20.445Z,10.52
2023-05-21T06:22:25.700Z,12.35
2023-05-21T06:27:29.411Z,10.25
2023-05-21T06:32:34.236Z,11.73
2023-05-21T06:37:37.668Z,11.05
2023-05-21T06:42:40.904Z,13.00
2023-05-21T06:48:04.102Z,13.63
2023-05-21T06:53:07.430Z,16.02
2023-05-21T06:58:11.752Z,11.50
2023-05-21T07:03:17.396Z,10.10
2023-05-21T07:08:20.965Z,14.75
2023-05-21T07:13:24.204Z,11.07
2023-05-21T07:18:29.023Z,10.48
2023-05-21T07:23:32.229Z,11.20
2023-05-21T07:28:35.962Z,12.48
2023-05-21T07:33:40.926Z,12.75
2023-05-21T07:38:46.365Z,10.35
2023-05-21T07:43:49.961Z,11.23
2023-05-21T07:48:54.701Z,11.93
2023-05-21T07:53:58.056Z,14.35
2023-05-21T07:59:08.384Z,9.67
2023-05-21T08:04:14.798Z,9.93
2023-05-21T08:09:18.382Z,12.30
2023-05-21T08:14:21.950Z,12.40
2023-05-21T08:19:27.777Z,10.60
2023-05-21T08:24:31.350Z,12.25
2023-05-21T08:29:35.161Z,13.13
2023-05-21T08:34:40.966Z,11.77
2023-05-21T08:40:07.541Z,13.07
2023-05-21T08:45:15.128Z,13.02
2023-05-21T08:50:20.408Z,16.25
2023-05-21T08:55:24.766Z,12.02
2023-05-21T09:00:28.044Z,12.30
2023-05-21T09:05:33.617Z,13.10
2023-05-21T09:10:37.950Z,11.45
2023-05-21T09:15:41.964Z,14.68
2023-05-21T09:20:47.677Z,13.40
2023-05-21T09:25:52.097Z,13.32
2023-05-21T09:31:08.510Z,13.75
2023-05-21T09:36:13.270Z,15.98
2023-05-21T09:41:18.888Z,12.95
2023-05-21T09:46:27.403Z,18.95
2023-05-21T09:51:32.224Z,17.02
2023-05-21T09:56:35.555Z,16.80
2023-05-21T10:01:39.534Z,15.52
2023-05-21T10:06:45.233Z,18.70
2023-05-21T10:11:49.356Z,19.17
2023-05-21T10:16:53.832Z,30.50
2023-05-21T10:21:58.723Z,19.63
2023-05-21T10:27:03.919Z,17.70
2023-05-21T10:32:07.848Z,18.88
2023-05-21T10:37:13.782Z,19.45
2023-05-21T10:42:21.243Z,18.10
2023-05-21T10:47:41.774Z,21.38
2023-05-21T10:52:58.176Z,23.73
2023-05-21T10:58:29.215Z,15.52
2023-05-21T11:03:36.517Z,18.02
2023-05-21T11:08:48.849Z,15.88
2023-05-21T11:13:52.040Z,15.55
2023-05-21T11:18:58.663Z,16.75
2023-05-21T11:24:04.253Z,15.23
2023-05-21T11:29:08.756Z,20.10
2023-05-21T11:34:15.743Z,16.75
2023-05-21T11:39:22.798Z,16.17
2023-05-21T11:44:46.832Z,13.05
2023-05-21T11:49:49.992Z,16.73
2023-05-21T11:54:55.373Z,24.60
2023-05-21T11:59:59.715Z,15.52
2023-05-21T12:05:03.955Z,14.35
2023-05-21T12:10:09.640Z,16.67
2023-05-21T12:15:13.670Z,14.65
2023-05-21T12:20:17.217Z,16.50
2023-05-21T12:25:22.356Z,15.60
2023-05-21T12:30:26.129Z,15.18
2023-05-21T12:35:29.347Z,29.17
2023-05-21T12:40:38.754Z,15.18
2023-05-21T12:45:42.890Z,14.82
2023-05-21T12:50:46.210Z,17.92
2023-05-21T12:55:51.491Z,15.43
2023-05-21T13:00:56.619Z,16.48
2023-05-21T13:06:01.096Z,16.02
2023-05-21T13:11:05.980Z,14.52
2023-05-21T13:16:09.257Z,16.17
2023-05-21T13:21:12.537Z,16.23
2023-05-21T13:26:17.089Z,16.80
2023-05-21T13:31:20.411Z,16.50
2023-05-21T13:36:23.685Z,15.57
2023-05-21T13:41:28.186Z,14.45
2023-05-21T13:46:31.516Z,21.02
2023-05-21T13:51:39.256Z,15.75
2023-05-21T13:56:44.074Z,18.40
2023-05-21T14:01:48.117Z,16.98
2023-05-21T14:06:51.299Z,16.85
2023-05-21T14:11:56.170Z,17.25
2023-05-21T14:16:59.564Z,16.50
2023-05-21T14:22:02.831Z,14.88
2023-05-21T14:27:07.473Z,20.25
2023-05-21T14:32:10.794Z,16.05
2023-05-21T14:37:14.050Z,16.77
2023-05-21T14:42:18.605Z,16.88
2023-05-21T14:47:21.866Z,15.98
2023-05-21T14:52:25.070Z,16.58
2023-05-21T14:57:29.660Z,17.55
2023-05-21T15:02:33.050Z,16.27
2023-05-21T15:07:36.270Z,21.08
2023-05-21T15:12:41.126Z,16.55
2023-05-21T15:17:44.595Z,16.85
2023-05-21T15:22:47.972Z,20.35
2023-05-21T15:27:52.549Z,16.95
2023-05-21T15:32:55.691Z,15.20
2023-05-21T15:37:58.847Z,17.88
2023-05-21T15:43:03.428Z,13.52
2023-05-21T15:48:07.404Z,34.33
2023-05-21T15:53:11.982Z,17.27
2023-05-21T15:58:16.979Z,17.63
2023-05-21T16:03:20.256Z,16.30
2023-05-21T16:08:24.823Z,15.75
2023-05-21T16:13:29.386Z,17.95
2023-05-21T16:18:32.736Z,15.48
2023-05-21T16:23:38.590Z,14.90
2023-05-21T16:28:43.318Z,15.35
2023-05-21T16:33:46.518Z,16.65
2023-05-21T16:38:49.654Z,12.77
2023-05-21T16:43:54.362Z,18.05
2023-05-21T16:48:57.540Z,17.25
2023-05-21T16:54:00.722Z,15.52
2023-05-21T16:59:05.273Z,19.63
2023-05-21T17:04:08.621Z,19.42
2023-05-21T17:09:12.074Z,14.02
2023-05-21T17:14:32.682Z,17.10
2023-05-21T17:19:37.406Z,16.10
2023-05-21T17:24:40.957Z,18.27
2023-05-21T17:29:45.531Z,15.18
2023-05-21T17:34:48.672Z,14.90
2023-05-21T17:39:51.825Z,16.05
2023-05-21T17:44:56.476Z,15.25
2023-05-21T17:49:59.700Z,14.88
2023-05-21T17:55:02.973Z,15.70
2023-05-21T18:00:11.287Z,15.82
2023-05-21T18:05:17.368Z,18.52
2023-05-21T18:10:20.634Z,17.48
2023-05-21T18:15:25.300Z,18.95
2023-05-21T18:20:28.529Z,15.90
2023-05-21T18:25:31.897Z,20.02
2023-05-21T18:30:37.269Z,19.05
2023-05-21T18:35:40.605Z,16.02
2023-05-21T18:40:43.818Z,15.25
2023-05-21T18:45:48.626Z,17.90
2023-05-21T18:50:52.805Z,18.42
2023-05-21T18:55:56.001Z,22.30
2023-05-21T19:01:00.640Z,18.02
2023-05-21T19:06:03.818Z,17.05
2023-05-21T19:11:07.378Z,17.02
2023-05-21T19:16:12.142Z,18.08
2023-05-21T19:21:15.527Z,16.75
2023-05-21T19:26:18.882Z,15.88
2023-05-21T19:31:23.709Z,14.90
2023-05-21T19:36:29.150Z,17.15
2023-05-21T19:41:35.824Z,18.25
2023-05-21T19:46:40.380Z,15.52
2023-05-21T19:51:43.618Z,18.02
2023-05-21T19:56:46.780Z,21.52
2023-05-21T20:01:51.699Z,17.10
2023-05-21T20:06:54.877Z,14.27
2023-05-21T20:11:58.003Z,13.77
2023-05-21T20:17:02.729Z,17.77
2023-05-21T20:22:06.140Z,15.65
2023-05-21T20:27:09.878Z,16.40
2023-05-21T20:32:14.455Z,16.38
2023-05-21T20:37:17.642Z,17.27
2023-05-21T20:42:21.388Z,19.30
2023-05-21T20:47:29.978Z,19.85
2023-05-21T20:52:33.353Z,18.33
2023-05-21T20:57:36.523Z,19.48
2023-05-21T21:02:41.310Z,19.75
2023-05-21T21:07:45.813Z,24.40
2023-05-21T21:12:49.048Z,22.67
2023-05-21T21:17:53.658Z,20.48
2023-05-21T21:22:56.971Z,19.77
2023-05-21T21:28:00.271Z,24.15
2023-05-21T21:33:05.014Z,23.73
2023-05-21T21:38:08.411Z,23.38
2023-05-21T21:43:11.664Z,22.45
2023-05-21T21:48:16.560Z,23.25
2023-05-21T21:53:19.852Z,21.50
2023-05-21T21:58:23.073Z,26.65
2023-05-21T22:03:27.639Z,23.00
2023-05-21T22:08:30.842Z,25.48
2023-05-21T22:13:34.380Z,23.13
2023-05-21T22:18:41.275Z,25.67
2023-05-21T22:23:45.108Z,30.67
2023-05-21T22:28:48.270Z,25.50
2023-05-21T22:33:52.791Z,25.00
2023-05-21T22:38:55.948Z,21.20
2023-05-21T22:43:59.111Z,15.27
2023-05-21T22:49:03.668Z,18.00
2023-05-21T22:54:06.828Z,21.40
2023-05-21T22:59:10.114Z,17.38
2023-05-21T23:04:15.253Z,21.40
2023-05-21T23:09:18.451Z,17.00
2023-05-21T23:14:22.088Z,19.05
2023-05-21T23:19:26.604Z,17.42
2023-05-21T23:24:30.041Z,22.75
2023-05-21T23:29:33.234Z,18.48
2023-05-21T23:34:37.805Z,14.88
2023-05-21T23:39:40.943Z,20.33
2023-05-21T23:44:44.161Z,15.88
2023-05-21T23:49:48.683Z,23.15
2023-05-21T23:54:51.826Z,27.58
2023-05-21T23:59:54.953Z,31.08
